Alma, MO

11:38 PM CDT on October 31, 2014 (GMT -0500)
Higginsville | Change Station
CLOSE
Current Station
Personal Weather Station
Location: Higginsville, MO
Elevation: 837 ft
Nearby Weather Stations
Active Advisory: Freeze Warning

Elev 837 ft 39.08 °N, 93.72 °W | Updated 37 seconds ago

Clear
Clear
33.0 °F
Feels Like 33 °F
N
1.0
Wind Variable Wind from North
Gusts 3.0 mph

Today
High -- | Low -- °F
--% Chance of Precip.
Yesterday
High -- | Low -- °F
Precip. -- in
7:40 AM 6:14 PM
Waxing Gibbous, 62% visible
Pressure 30.45 in
Visibility 9.0 miles
Clouds Clear
Windchill 33 °F
Dew Point 22 °F
Humidity 65%
Rainfall 0.00 in
Snow Depth Not available.
UV 0.0 out of 12
Pollen 1.10 out of 12
Air Quality Not available.
Flu Activity Not available.
SPECI KSZL 010403Z AUTO 36005KT 9SM R01/5500FT CLR 00/M06 A3045 RMK AO2 $

More Conditions Fewer Conditions

Pressure 30.45 in
Visibility 9.0 miles
Clouds Clear
Windchill 33 °F
Dew Point 22 °F
Humidity 65%
Rainfall 0.00 in
Snow Depth Not available.
UV 0.0 out of 12
Pollen 1.10 out of 12
Air Quality Not available.
Flu Activity Not available.
SPECI KSZL 010403Z AUTO 36005KT 9SM R01/5500FT CLR 00/M06 A3045 RMK AO2 $

More Conditions Fewer Conditions

10-Day Weather Forecast

Almanac

Astronomy

Oct. 31, 2014 Rise Set
Actual Time
Civil Twilight
Nautical Twilight
Astronomical Twilight
Moon
Length of Visible Light
Length of Day
Tomorrow will be .
, % of the Moon is Illuminated

Today's Extremes

State Highs State Lows

Community

WunderPhotos

Upload Photos

1,766,854 photos uploaded!

WunderBlogs® & News

Nearby

Air Quality

  Air Quality AQ Index Pollutant
Not available.

Snow Depth

Station Depth Elevation

Earthquake Activity

City Distance Mag. Time & Date
Minimum magnitude displayed is 2.5.

Coastal Water Temperatures

Place Temperature

Nearby Weather Stations